sensor_id;sensor_type;location;lat;lon;timestamp;P1;durP1;ratioP1;P2;durP2;ratioP2
20229;SDS011;12195;55.790;37.572;2022-08-19T00:02:25;8.20;;;3.85;;
20229;SDS011;12195;55.790;37.572;2022-08-19T00:04:57;25.00;;;5.45;;
20229;SDS011;12195;55.790;37.572;2022-08-19T00:07:30;10.70;;;4.75;;
20229;SDS011;12195;55.790;37.572;2022-08-19T00:10:03;11.40;;;4.53;;
20229;SDS011;12195;55.790;37.572;2022-08-19T00:12:37;8.85;;;4.62;;
20229;SDS011;12195;55.790;37.572;2022-08-19T00:15:13;11.25;;;4.55;;
20229;SDS011;12195;55.790;37.572;2022-08-19T00:17:46;7.67;;;5.12;;
20229;SDS011;12195;55.790;37.572;2022-08-19T00:20:20;10.35;;;4.53;;
20229;SDS011;12195;55.790;37.572;2022-08-19T00:22:53;13.17;;;4.87;;
20229;SDS011;12195;55.790;37.572;2022-08-19T00:25:25;11.10;;;4.12;;
20229;SDS011;12195;55.790;37.572;2022-08-19T00:27:59;9.87;;;4.83;;
20229;SDS011;12195;55.790;37.572;2022-08-19T00:30:31;8.88;;;4.30;;
20229;SDS011;12195;55.790;37.572;2022-08-19T00:33:03;14.18;;;5.28;;
20229;SDS011;12195;55.790;37.572;2022-08-19T00:35:35;12.47;;;4.58;;
20229;SDS011;12195;55.790;37.572;2022-08-19T00:38:08;8.78;;;4.55;;
20229;SDS011;12195;55.790;37.572;2022-08-19T00:40:42;8.73;;;4.70;;
20229;SDS011;12195;55.790;37.572;2022-08-19T00:43:22;10.55;;;4.65;;
20229;SDS011;12195;55.790;37.572;2022-08-19T00:45:51;8.48;;;4.72;;
20229;SDS011;12195;55.790;37.572;2022-08-19T00:48:23;10.63;;;5.12;;
20229;SDS011;12195;55.790;37.572;2022-08-19T00:50:55;11.53;;;5.20;;
20229;SDS011;12195;55.790;37.572;2022-08-19T00:53:28;12.40;;;4.97;;
20229;SDS011;12195;55.790;37.572;2022-08-19T00:56:04;9.43;;;4.37;;
20229;SDS011;12195;55.790;37.572;2022-08-19T00:58:36;13.98;;;4.97;;
20229;SDS011;12195;55.790;37.572;2022-08-19T01:01:09;12.50;;;5.70;;
20229;SDS011;12195;55.790;37.572;2022-08-19T01:03:42;10.98;;;4.95;;
20229;SDS011;12195;55.790;37.572;2022-08-19T01:06:16;10.45;;;5.15;;
20229;SDS011;12195;55.790;37.572;2022-08-19T01:08:49;12.18;;;5.87;;
20229;SDS011;12195;55.790;37.572;2022-08-19T01:11:21;13.70;;;5.10;;
20229;SDS011;12195;55.790;37.572;2022-08-19T01:13:54;12.00;;;5.10;;
20229;SDS011;12195;55.790;37.572;2022-08-19T01:16:27;12.78;;;5.25;;
20229;SDS011;12195;55.790;37.572;2022-08-19T01:19:00;10.65;;;5.65;;
20229;SDS011;12195;55.790;37.572;2022-08-19T01:21:37;13.03;;;5.20;;
20229;SDS011;12195;55.790;37.572;2022-08-19T01:24:12;7.65;;;4.42;;
20229;SDS011;12195;55.790;37.572;2022-08-19T01:26:46;10.50;;;5.22;;
20229;SDS011;12195;55.790;37.572;2022-08-19T01:29:19;11.03;;;5.17;;
20229;SDS011;12195;55.790;37.572;2022-08-19T01:31:53;10.72;;;5.37;;
20229;SDS011;12195;55.790;37.572;2022-08-19T01:34:25;11.48;;;4.78;;
20229;SDS011;12195;55.790;37.572;2022-08-19T01:36:57;9.78;;;5.05;;
20229;SDS011;12195;55.790;37.572;2022-08-19T01:39:30;6.97;;;4.20;;
20229;SDS011;12195;55.790;37.572;2022-08-19T01:42:02;14.18;;;5.62;;
20229;SDS011;12195;55.790;37.572;2022-08-19T01:44:36;8.65;;;4.85;;
20229;SDS011;12195;55.790;37.572;2022-08-19T01:49:41;13.22;;;4.95;;
20229;SDS011;12195;55.790;37.572;2022-08-19T01:52:14;12.28;;;5.05;;
20229;SDS011;12195;55.790;37.572;2022-08-19T01:54:46;12.47;;;4.65;;
20229;SDS011;12195;55.790;37.572;2022-08-19T01:57:18;13.83;;;4.97;;
20229;SDS011;12195;55.790;37.572;2022-08-19T01:59:50;9.58;;;4.70;;
20229;SDS011;12195;55.790;37.572;2022-08-19T02:02:22;10.70;;;4.72;;
20229;SDS011;12195;55.790;37.572;2022-08-19T02:04:55;10.50;;;5.83;;
20229;SDS011;12195;55.790;37.572;2022-08-19T02:07:30;12.63;;;4.80;;
20229;SDS011;12195;55.790;37.572;2022-08-19T02:10:03;12.40;;;4.72;;
20229;SDS011;12195;55.790;37.572;2022-08-19T02:12:38;11.15;;;4.22;;
20229;SDS011;12195;55.790;37.572;2022-08-19T02:15:11;13.28;;;9.70;;
20229;SDS011;12195;55.790;37.572;2022-08-19T02:17:44;11.22;;;4.72;;
20229;SDS011;12195;55.790;37.572;2022-08-19T02:20:16;8.78;;;4.37;;
20229;SDS011;12195;55.790;37.572;2022-08-19T02:22:48;12.40;;;4.92;;
20229;SDS011;12195;55.790;37.572;2022-08-19T02:25:21;10.28;;;4.78;;
20229;SDS011;12195;55.790;37.572;2022-08-19T02:27:53;10.38;;;4.85;;
20229;SDS011;12195;55.790;37.572;2022-08-19T02:30:26;17.50;;;5.47;;
20229;SDS011;12195;55.790;37.572;2022-08-19T02:32:58;16.40;;;6.08;;
20229;SDS011;12195;55.790;37.572;2022-08-19T02:35:30;15.93;;;5.97;;
20229;SDS011;12195;55.790;37.572;2022-08-19T02:38:02;16.25;;;6.05;;
20229;SDS011;12195;55.790;37.572;2022-08-19T02:40:54;11.80;;;5.67;;
20229;SDS011;12195;55.790;37.572;2022-08-19T02:43:29;15.93;;;6.30;;
20229;SDS011;12195;55.790;37.572;2022-08-19T02:46:14;14.55;;;5.62;;
20229;SDS011;12195;55.790;37.572;2022-08-19T02:48:54;16.80;;;6.08;;
20229;SDS011;12195;55.790;37.572;2022-08-19T02:51:30;16.27;;;5.97;;
20229;SDS011;12195;55.790;37.572;2022-08-19T02:54:05;14.13;;;5.90;;
20229;SDS011;12195;55.790;37.572;2022-08-19T02:56:39;12.18;;;5.65;;
20229;SDS011;12195;55.790;37.572;2022-08-19T02:59:13;13.15;;;5.28;;
20229;SDS011;12195;55.790;37.572;2022-08-19T03:01:45;13.25;;;4.78;;
20229;SDS011;12195;55.790;37.572;2022-08-19T03:04:17;14.10;;;5.08;;
20229;SDS011;12195;55.790;37.572;2022-08-19T03:06:50;15.38;;;6.47;;
20229;SDS011;12195;55.790;37.572;2022-08-19T03:09:23;10.85;;;4.78;;
20229;SDS011;12195;55.790;37.572;2022-08-19T03:11:56;13.10;;;5.47;;
20229;SDS011;12195;55.790;37.572;2022-08-19T03:14:29;13.58;;;5.25;;
20229;SDS011;12195;55.790;37.572;2022-08-19T03:17:03;15.32;;;6.50;;
20229;SDS011;12195;55.790;37.572;2022-08-19T03:19:35;12.25;;;5.50;;
20229;SDS011;12195;55.790;37.572;2022-08-19T03:22:08;11.70;;;5.03;;
20229;SDS011;12195;55.790;37.572;2022-08-19T03:24:40;12.73;;;5.20;;
20229;SDS011;12195;55.790;37.572;2022-08-19T03:27:14;14.20;;;5.85;;
20229;SDS011;12195;55.790;37.572;2022-08-19T03:29:47;10.18;;;5.20;;
20229;SDS011;12195;55.790;37.572;2022-08-19T03:32:20;9.63;;;5.55;;
20229;SDS011;12195;55.790;37.572;2022-08-19T03:34:54;14.03;;;5.50;;
20229;SDS011;12195;55.790;37.572;2022-08-19T03:37:27;12.58;;;5.25;;
20229;SDS011;12195;55.790;37.572;2022-08-19T03:39:58;14.70;;;6.22;;
20229;SDS011;12195;55.790;37.572;2022-08-19T03:42:32;12.37;;;5.60;;
20229;SDS011;12195;55.790;37.572;2022-08-19T03:45:06;17.30;;;5.03;;
20229;SDS011;12195;55.790;37.572;2022-08-19T03:47:40;17.98;;;5.85;;
20229;SDS011;12195;55.790;37.572;2022-08-19T03:50:13;16.77;;;6.12;;
20229;SDS011;12195;55.790;37.572;2022-08-19T03:52:49;13.05;;;5.08;;
20229;SDS011;12195;55.790;37.572;2022-08-19T03:55:23;12.03;;;4.90;;
20229;SDS011;12195;55.790;37.572;2022-08-19T03:57:55;10.48;;;4.75;;
20229;SDS011;12195;55.790;37.572;2022-08-19T04:00:28;15.38;;;5.20;;
20229;SDS011;12195;55.790;37.572;2022-08-19T04:03:01;11.30;;;6.20;;
20229;SDS011;12195;55.790;37.572;2022-08-19T04:05:33;15.72;;;5.70;;
20229;SDS011;12195;55.790;37.572;2022-08-19T04:08:05;9.78;;;5.45;;
20229;SDS011;12195;55.790;37.572;2022-08-19T04:10:39;13.30;;;5.60;;
20229;SDS011;12195;55.790;37.572;2022-08-19T04:13:12;11.43;;;5.50;;
20229;SDS011;12195;55.790;37.572;2022-08-19T04:15:45;11.10;;;5.15;;
20229;SDS011;12195;55.790;37.572;2022-08-19T04:18:17;12.47;;;5.40;;
20229;SDS011;12195;55.790;37.572;2022-08-19T04:20:49;11.80;;;5.72;;
20229;SDS011;12195;55.790;37.572;2022-08-19T04:23:22;15.85;;;5.75;;
20229;SDS011;12195;55.790;37.572;2022-08-19T04:25:54;22.10;;;6.47;;
20229;SDS011;12195;55.790;37.572;2022-08-19T04:28:27;13.05;;;6.10;;
20229;SDS011;12195;55.790;37.572;2022-08-19T04:31:00;10.75;;;5.30;;
20229;SDS011;12195;55.790;37.572;2022-08-19T04:33:32;19.50;;;5.67;;
20229;SDS011;12195;55.790;37.572;2022-08-19T04:36:05;12.55;;;5.90;;
20229;SDS011;12195;55.790;37.572;2022-08-19T04:38:37;14.63;;;5.70;;
20229;SDS011;12195;55.790;37.572;2022-08-19T04:41:09;19.35;;;6.20;;
20229;SDS011;12195;55.790;37.572;2022-08-19T04:44:00;11.08;;;5.37;;
20229;SDS011;12195;55.790;37.572;2022-08-19T04:46:33;15.28;;;6.47;;
20229;SDS011;12195;55.790;37.572;2022-08-19T04:49:07;11.85;;;4.75;;
20229;SDS011;12195;55.790;37.572;2022-08-19T04:51:42;8.15;;;3.95;;
20229;SDS011;12195;55.790;37.572;2022-08-19T04:54:17;13.50;;;4.83;;
20229;SDS011;12195;55.790;37.572;2022-08-19T04:56:53;13.43;;;4.90;;
20229;SDS011;12195;55.790;37.572;2022-08-19T04:59:25;8.43;;;5.12;;
20229;SDS011;12195;55.790;37.572;2022-08-19T05:01:58;12.80;;;4.78;;
20229;SDS011;12195;55.790;37.572;2022-08-19T05:04:30;13.40;;;4.62;;
20229;SDS011;12195;55.790;37.572;2022-08-19T05:07:03;10.55;;;4.87;;
20229;SDS011;12195;55.790;37.572;2022-08-19T05:09:35;12.75;;;4.72;;
20229;SDS011;12195;55.790;37.572;2022-08-19T05:14:42;13.22;;;4.25;;
20229;SDS011;12195;55.790;37.572;2022-08-19T05:17:16;12.98;;;5.92;;
20229;SDS011;12195;55.790;37.572;2022-08-19T05:19:50;13.48;;;4.17;;
20229;SDS011;12195;55.790;37.572;2022-08-19T05:22:41;7.40;;;3.87;;
20229;SDS011;12195;55.790;37.572;2022-08-19T05:25:16;10.90;;;4.22;;
20229;SDS011;12195;55.790;37.572;2022-08-19T05:27:51;6.87;;;3.52;;
20229;SDS011;12195;55.790;37.572;2022-08-19T05:30:24;9.03;;;4.25;;
20229;SDS011;12195;55.790;37.572;2022-08-19T05:32:58;15.18;;;4.37;;
20229;SDS011;12195;55.790;37.572;2022-08-19T05:35:30;13.18;;;3.90;;
20229;SDS011;12195;55.790;37.572;2022-08-19T05:38:04;10.40;;;4.57;;
20229;SDS011;12195;55.790;37.572;2022-08-19T05:40:41;12.98;;;3.70;;
20229;SDS011;12195;55.790;37.572;2022-08-19T05:43:16;10.43;;;4.35;;
20229;SDS011;12195;55.790;37.572;2022-08-19T05:45:48;10.90;;;4.30;;
20229;SDS011;12195;55.790;37.572;2022-08-19T05:48:21;15.35;;;4.12;;
20229;SDS011;12195;55.790;37.572;2022-08-19T05:50:54;7.53;;;3.80;;
20229;SDS011;12195;55.790;37.572;2022-08-19T05:53:27;8.75;;;4.00;;
20229;SDS011;12195;55.790;37.572;2022-08-19T05:56:06;8.03;;;4.40;;
20229;SDS011;12195;55.790;37.572;2022-08-19T05:58:40;15.90;;;4.37;;
20229;SDS011;12195;55.790;37.572;2022-08-19T06:03:47;12.07;;;3.90;;
20229;SDS011;12195;55.790;37.572;2022-08-19T06:06:19;7.45;;;3.67;;
20229;SDS011;12195;55.790;37.572;2022-08-19T06:08:51;7.85;;;3.22;;
20229;SDS011;12195;55.790;37.572;2022-08-19T06:11:28;9.38;;;3.65;;
20229;SDS011;12195;55.790;37.572;2022-08-19T06:14:12;11.03;;;3.42;;
20229;SDS011;12195;55.790;37.572;2022-08-19T06:16:47;15.58;;;4.58;;
20229;SDS011;12195;55.790;37.572;2022-08-19T06:19:21;8.88;;;3.90;;
20229;SDS011;12195;55.790;37.572;2022-08-19T06:21:59;9.80;;;3.85;;
20229;SDS011;12195;55.790;37.572;2022-08-19T06:24:32;12.78;;;3.87;;
20229;SDS011;12195;55.790;37.572;2022-08-19T06:27:05;11.22;;;4.62;;
20229;SDS011;12195;55.790;37.572;2022-08-19T06:29:37;9.83;;;3.72;;
20229;SDS011;12195;55.790;37.572;2022-08-19T06:32:14;5.30;;;2.85;;
20229;SDS011;12195;55.790;37.572;2022-08-19T06:34:48;7.15;;;4.42;;
20229;SDS011;12195;55.790;37.572;2022-08-19T06:37:21;7.35;;;3.08;;
20229;SDS011;12195;55.790;37.572;2022-08-19T06:39:55;12.00;;;3.98;;
20229;SDS011;12195;55.790;37.572;2022-08-19T06:42:29;9.90;;;3.92;;
20229;SDS011;12195;55.790;37.572;2022-08-19T06:45:05;8.03;;;3.80;;
20229;SDS011;12195;55.790;37.572;2022-08-19T06:47:39;9.53;;;3.62;;
20229;SDS011;12195;55.790;37.572;2022-08-19T06:50:12;10.68;;;4.22;;
20229;SDS011;12195;55.790;37.572;2022-08-19T06:52:45;11.83;;;3.72;;
20229;SDS011;12195;55.790;37.572;2022-08-19T06:55:20;11.45;;;3.60;;
20229;SDS011;12195;55.790;37.572;2022-08-19T06:57:53;8.45;;;3.42;;
20229;SDS011;12195;55.790;37.572;2022-08-19T07:00:25;6.65;;;3.50;;
20229;SDS011;12195;55.790;37.572;2022-08-19T07:02:58;9.25;;;4.12;;
20229;SDS011;12195;55.790;37.572;2022-08-19T07:05:37;14.40;;;5.17;;
20229;SDS011;12195;55.790;37.572;2022-08-19T07:08:13;15.65;;;5.22;;
20229;SDS011;12195;55.790;37.572;2022-08-19T07:13:19;14.10;;;4.33;;
20229;SDS011;12195;55.790;37.572;2022-08-19T07:15:52;13.88;;;3.98;;
20229;SDS011;12195;55.790;37.572;2022-08-19T07:18:24;15.78;;;4.15;;
20229;SDS011;12195;55.790;37.572;2022-08-19T07:21:09;17.02;;;4.50;;
20229;SDS011;12195;55.790;37.572;2022-08-19T07:23:38;11.25;;;4.03;;
20229;SDS011;12195;55.790;37.572;2022-08-19T07:28:50;9.63;;;3.20;;
20229;SDS011;12195;55.790;37.572;2022-08-19T07:31:24;9.25;;;3.95;;
20229;SDS011;12195;55.790;37.572;2022-08-19T07:34:00;13.32;;;3.98;;
20229;SDS011;12195;55.790;37.572;2022-08-19T07:36:33;10.60;;;3.58;;
20229;SDS011;12195;55.790;37.572;2022-08-19T07:39:09;14.58;;;4.10;;
20229;SDS011;12195;55.790;37.572;2022-08-19T07:41:46;11.88;;;4.70;;
20229;SDS011;12195;55.790;37.572;2022-08-19T07:44:20;6.92;;;3.50;;
20229;SDS011;12195;55.790;37.572;2022-08-19T07:46:54;11.22;;;3.05;;
20229;SDS011;12195;55.790;37.572;2022-08-19T07:49:29;9.75;;;2.70;;
20229;SDS011;12195;55.790;37.572;2022-08-19T07:52:05;14.85;;;3.22;;
20229;SDS011;12195;55.790;37.572;2022-08-19T07:54:39;7.72;;;3.02;;
20229;SDS011;12195;55.790;37.572;2022-08-19T07:57:12;12.23;;;3.22;;
20229;SDS011;12195;55.790;37.572;2022-08-19T07:59:44;5.28;;;3.08;;
20229;SDS011;12195;55.790;37.572;2022-08-19T08:02:16;13.40;;;4.53;;
20229;SDS011;12195;55.790;37.572;2022-08-19T08:04:49;12.50;;;3.35;;
20229;SDS011;12195;55.790;37.572;2022-08-19T08:07:39;10.43;;;3.70;;
20229;SDS011;12195;55.790;37.572;2022-08-19T08:10:29;8.00;;;3.83;;
20229;SDS011;12195;55.790;37.572;2022-08-19T08:13:03;9.30;;;4.30;;
20229;SDS011;12195;55.790;37.572;2022-08-19T08:15:37;9.10;;;2.50;;
20229;SDS011;12195;55.790;37.572;2022-08-19T08:18:11;5.62;;;3.05;;
20229;SDS011;12195;55.790;37.572;2022-08-19T08:20:44;6.80;;;4.00;;
20229;SDS011;12195;55.790;37.572;2022-08-19T08:23:16;7.33;;;3.27;;
20229;SDS011;12195;55.790;37.572;2022-08-19T08:25:59;14.35;;;3.77;;
20229;SDS011;12195;55.790;37.572;2022-08-19T08:28:32;5.35;;;3.10;;
20229;SDS011;12195;55.790;37.572;2022-08-19T08:31:05;14.28;;;5.05;;
20229;SDS011;12195;55.790;37.572;2022-08-19T08:33:38;10.35;;;3.15;;
20229;SDS011;12195;55.790;37.572;2022-08-19T08:36:12;11.78;;;4.55;;
20229;SDS011;12195;55.790;37.572;2022-08-19T08:38:45;12.93;;;4.03;;
20229;SDS011;12195;55.790;37.572;2022-08-19T08:41:34;10.30;;;4.17;;
20229;SDS011;12195;55.790;37.572;2022-08-19T08:47:13;9.10;;;4.05;;
20229;SDS011;12195;55.790;37.572;2022-08-19T08:49:54;7.87;;;3.87;;
20229;SDS011;12195;55.790;37.572;2022-08-19T08:52:31;8.08;;;3.12;;
20229;SDS011;12195;55.790;37.572;2022-08-19T08:55:10;21.12;;;8.75;;
20229;SDS011;12195;55.790;37.572;2022-08-19T09:00:29;14.05;;;5.15;;
20229;SDS011;12195;55.790;37.572;2022-08-19T09:02:59;7.08;;;3.92;;
20229;SDS011;12195;55.790;37.572;2022-08-19T09:05:36;12.45;;;3.35;;
20229;SDS011;12195;55.790;37.572;2022-08-19T09:08:15;10.00;;;3.60;;
20229;SDS011;12195;55.790;37.572;2022-08-19T09:10:52;8.28;;;3.05;;
20229;SDS011;12195;55.790;37.572;2022-08-19T09:16:19;6.15;;;3.35;;
20229;SDS011;12195;55.790;37.572;2022-08-19T09:18:57;8.70;;;3.58;;
20229;SDS011;12195;55.790;37.572;2022-08-19T09:21:31;9.60;;;3.67;;
20229;SDS011;12195;55.790;37.572;2022-08-19T09:24:05;12.03;;;4.03;;
20229;SDS011;12195;55.790;37.572;2022-08-19T09:26:37;10.43;;;4.95;;
20229;SDS011;12195;55.790;37.572;2022-08-19T09:29:11;7.15;;;3.92;;
20229;SDS011;12195;55.790;37.572;2022-08-19T09:34:17;10.08;;;3.80;;
20229;SDS011;12195;55.790;37.572;2022-08-19T09:36:51;12.35;;;3.55;;
20229;SDS011;12195;55.790;37.572;2022-08-19T09:39:24;6.45;;;3.62;;
20229;SDS011;12195;55.790;37.572;2022-08-19T09:44:30;9.23;;;3.85;;
20229;SDS011;12195;55.790;37.572;2022-08-19T09:47:04;8.87;;;3.90;;
20229;SDS011;12195;55.790;37.572;2022-08-19T09:49:37;10.50;;;3.90;;
20229;SDS011;12195;55.790;37.572;2022-08-19T09:52:10;11.43;;;4.40;;
20229;SDS011;12195;55.790;37.572;2022-08-19T09:54:42;13.65;;;3.40;;
20229;SDS011;12195;55.790;37.572;2022-08-19T09:57:17;10.70;;;3.12;;
20229;SDS011;12195;55.790;37.572;2022-08-19T09:59:49;5.42;;;2.67;;
20229;SDS011;12195;55.790;37.572;2022-08-19T10:02:23;5.87;;;3.05;;
20229;SDS011;12195;55.790;37.572;2022-08-19T10:04:57;8.93;;;3.65;;
20229;SDS011;12195;55.790;37.572;2022-08-19T10:07:48;14.28;;;6.67;;
20229;SDS011;12195;55.790;37.572;2022-08-19T10:10:21;5.37;;;3.00;;
20229;SDS011;12195;55.790;37.572;2022-08-19T10:12:54;9.50;;;4.00;;
20229;SDS011;12195;55.790;37.572;2022-08-19T10:15:26;10.20;;;3.92;;
20229;SDS011;12195;55.790;37.572;2022-08-19T10:18:00;14.05;;;4.95;;
20229;SDS011;12195;55.790;37.572;2022-08-19T10:20:34;16.40;;;3.98;;
20229;SDS011;12195;55.790;37.572;2022-08-19T10:23:07;9.63;;;3.75;;
20229;SDS011;12195;55.790;37.572;2022-08-19T10:25:39;9.73;;;3.75;;
20229;SDS011;12195;55.790;37.572;2022-08-19T10:28:13;9.18;;;3.12;;
20229;SDS011;12195;55.790;37.572;2022-08-19T10:30:47;12.78;;;4.40;;
20229;SDS011;12195;55.790;37.572;2022-08-19T10:33:19;10.48;;;3.98;;
20229;SDS011;12195;55.790;37.572;2022-08-19T10:36:04;9.78;;;3.95;;
20229;SDS011;12195;55.790;37.572;2022-08-19T10:38:37;7.15;;;3.75;;
20229;SDS011;12195;55.790;37.572;2022-08-19T10:41:13;9.83;;;4.08;;
20229;SDS011;12195;55.790;37.572;2022-08-19T10:43:47;12.82;;;3.80;;
20229;SDS011;12195;55.790;37.572;2022-08-19T10:46:21;13.18;;;3.95;;
20229;SDS011;12195;55.790;37.572;2022-08-19T10:48:54;12.65;;;5.08;;
20229;SDS011;12195;55.790;37.572;2022-08-19T10:51:27;10.68;;;3.52;;
20229;SDS011;12195;55.790;37.572;2022-08-19T10:54:18;10.80;;;2.65;;
20229;SDS011;12195;55.790;37.572;2022-08-19T10:56:53;10.95;;;2.67;;
20229;SDS011;12195;55.790;37.572;2022-08-19T10:59:28;8.08;;;2.33;;
20229;SDS011;12195;55.790;37.572;2022-08-19T11:02:03;10.65;;;3.40;;
20229;SDS011;12195;55.790;37.572;2022-08-19T11:04:37;7.92;;;2.62;;
20229;SDS011;12195;55.790;37.572;2022-08-19T11:07:11;8.73;;;2.37;;
20229;SDS011;12195;55.790;37.572;2022-08-19T11:09:43;6.42;;;2.70;;
20229;SDS011;12195;55.790;37.572;2022-08-19T11:12:16;5.87;;;2.65;;
20229;SDS011;12195;55.790;37.572;2022-08-19T11:14:49;5.67;;;2.00;;
20229;SDS011;12195;55.790;37.572;2022-08-19T11:17:22;10.20;;;2.50;;
20229;SDS011;12195;55.790;37.572;2022-08-19T11:19:54;10.10;;;2.67;;
20229;SDS011;12195;55.790;37.572;2022-08-19T11:22:27;4.55;;;1.90;;
20229;SDS011;12195;55.790;37.572;2022-08-19T11:25:01;10.65;;;3.00;;
20229;SDS011;12195;55.790;37.572;2022-08-19T11:27:33;8.70;;;2.47;;
20229;SDS011;12195;55.790;37.572;2022-08-19T11:30:13;9.05;;;2.75;;
20229;SDS011;12195;55.790;37.572;2022-08-19T11:32:46;7.58;;;2.60;;
20229;SDS011;12195;55.790;37.572;2022-08-19T11:35:18;5.75;;;2.72;;
20229;SDS011;12195;55.790;37.572;2022-08-19T11:37:52;7.97;;;1.98;;
20229;SDS011;12195;55.790;37.572;2022-08-19T11:40:26;4.30;;;2.50;;
20229;SDS011;12195;55.790;37.572;2022-08-19T11:42:59;9.40;;;2.52;;
20229;SDS011;12195;55.790;37.572;2022-08-19T11:45:31;4.70;;;2.30;;
20229;SDS011;12195;55.790;37.572;2022-08-19T11:48:03;4.67;;;2.60;;
20229;SDS011;12195;55.790;37.572;2022-08-19T11:50:36;3.95;;;2.05;;
20229;SDS011;12195;55.790;37.572;2022-08-19T11:53:10;5.20;;;2.65;;
20229;SDS011;12195;55.790;37.572;2022-08-19T11:55:43;12.95;;;3.05;;
20229;SDS011;12195;55.790;37.572;2022-08-19T11:58:15;8.43;;;2.60;;
20229;SDS011;12195;55.790;37.572;2022-08-19T12:00:48;5.90;;;2.12;;
20229;SDS011;12195;55.790;37.572;2022-08-19T12:03:21;5.45;;;2.27;;
20229;SDS011;12195;55.790;37.572;2022-08-19T12:05:54;3.17;;;2.20;;
20229;SDS011;12195;55.790;37.572;2022-08-19T12:08:27;7.70;;;2.50;;
20229;SDS011;12195;55.790;37.572;2022-08-19T12:10:59;3.77;;;2.08;;
20229;SDS011;12195;55.790;37.572;2022-08-19T12:13:31;5.92;;;1.98;;
20229;SDS011;12195;55.790;37.572;2022-08-19T12:16:13;4.67;;;2.50;;
20229;SDS011;12195;55.790;37.572;2022-08-19T12:18:43;5.55;;;2.47;;
20229;SDS011;12195;55.790;37.572;2022-08-19T12:21:22;6.85;;;2.77;;
20229;SDS011;12195;55.790;37.572;2022-08-19T12:23:59;6.05;;;2.42;;
20229;SDS011;12195;55.790;37.572;2022-08-19T12:26:33;13.58;;;2.47;;
20229;SDS011;12195;55.790;37.572;2022-08-19T12:29:08;7.40;;;2.52;;
20229;SDS011;12195;55.790;37.572;2022-08-19T12:31:40;8.75;;;2.85;;
20229;SDS011;12195;55.790;37.572;2022-08-19T12:34:14;5.25;;;2.17;;
20229;SDS011;12195;55.790;37.572;2022-08-19T12:36:46;5.53;;;2.30;;
20229;SDS011;12195;55.790;37.572;2022-08-19T12:39:19;9.75;;;2.35;;
20229;SDS011;12195;55.790;37.572;2022-08-19T12:41:52;8.40;;;2.90;;
20229;SDS011;12195;55.790;37.572;2022-08-19T12:44:25;12.07;;;3.22;;
20229;SDS011;12195;55.790;37.572;2022-08-19T12:46:59;7.42;;;2.75;;
20229;SDS011;12195;55.790;37.572;2022-08-19T12:49:34;4.72;;;2.47;;
20229;SDS011;12195;55.790;37.572;2022-08-19T12:52:09;8.33;;;2.80;;
20229;SDS011;12195;55.790;37.572;2022-08-19T12:54:45;8.68;;;3.45;;
20229;SDS011;12195;55.790;37.572;2022-08-19T12:57:19;7.05;;;2.50;;
20229;SDS011;12195;55.790;37.572;2022-08-19T12:59:55;7.03;;;2.90;;
20229;SDS011;12195;55.790;37.572;2022-08-19T13:02:27;5.92;;;2.45;;
20229;SDS011;12195;55.790;37.572;2022-08-19T13:04:59;8.95;;;2.52;;
20229;SDS011;12195;55.790;37.572;2022-08-19T13:07:32;7.12;;;2.12;;
20229;SDS011;12195;55.790;37.572;2022-08-19T13:10:06;3.70;;;2.20;;
20229;SDS011;12195;55.790;37.572;2022-08-19T13:12:42;6.33;;;2.10;;
20229;SDS011;12195;55.790;37.572;2022-08-19T13:15:16;6.50;;;2.35;;
20229;SDS011;12195;55.790;37.572;2022-08-19T13:17:53;4.92;;;2.33;;
20229;SDS011;12195;55.790;37.572;2022-08-19T13:20:26;10.95;;;2.77;;
20229;SDS011;12195;55.790;37.572;2022-08-19T13:22:59;10.53;;;2.90;;
20229;SDS011;12195;55.790;37.572;2022-08-19T13:25:31;7.90;;;2.92;;
20229;SDS011;12195;55.790;37.572;2022-08-19T13:28:04;10.30;;;2.83;;
20229;SDS011;12195;55.790;37.572;2022-08-19T13:30:36;6.83;;;2.70;;
20229;SDS011;12195;55.790;37.572;2022-08-19T13:33:26;5.95;;;2.67;;
20229;SDS011;12195;55.790;37.572;2022-08-19T13:35:59;7.72;;;2.87;;
20229;SDS011;12195;55.790;37.572;2022-08-19T13:38:32;10.85;;;2.98;;
20229;SDS011;12195;55.790;37.572;2022-08-19T13:41:05;8.58;;;3.20;;
20229;SDS011;12195;55.790;37.572;2022-08-19T13:43:39;5.17;;;2.60;;
20229;SDS011;12195;55.790;37.572;2022-08-19T13:46:11;6.92;;;2.55;;
20229;SDS011;12195;55.790;37.572;2022-08-19T13:48:44;6.12;;;2.65;;
20229;SDS011;12195;55.790;37.572;2022-08-19T13:51:17;6.55;;;3.05;;
20229;SDS011;12195;55.790;37.572;2022-08-19T13:53:49;9.43;;;2.98;;
20229;SDS011;12195;55.790;37.572;2022-08-19T13:56:21;7.20;;;2.45;;
20229;SDS011;12195;55.790;37.572;2022-08-19T13:58:56;6.22;;;2.27;;
20229;SDS011;12195;55.790;37.572;2022-08-19T14:01:29;9.70;;;2.67;;
20229;SDS011;12195;55.790;37.572;2022-08-19T14:04:01;6.47;;;2.87;;
20229;SDS011;12195;55.790;37.572;2022-08-19T14:06:34;13.15;;;2.70;;
20229;SDS011;12195;55.790;37.572;2022-08-19T14:09:06;15.05;;;3.02;;
20229;SDS011;12195;55.790;37.572;2022-08-19T14:11:38;10.03;;;3.55;;
20229;SDS011;12195;55.790;37.572;2022-08-19T14:14:11;13.15;;;3.20;;
20229;SDS011;12195;55.790;37.572;2022-08-19T14:16:45;7.35;;;3.15;;
20229;SDS011;12195;55.790;37.572;2022-08-19T14:19:17;11.83;;;3.55;;
20229;SDS011;12195;55.790;37.572;2022-08-19T14:21:49;6.22;;;2.33;;
20229;SDS011;12195;55.790;37.572;2022-08-19T14:24:21;7.35;;;2.72;;
20229;SDS011;12195;55.790;37.572;2022-08-19T14:26:55;8.45;;;2.98;;
20229;SDS011;12195;55.790;37.572;2022-08-19T14:29:28;7.55;;;3.27;;
20229;SDS011;12195;55.790;37.572;2022-08-19T14:32:01;8.78;;;2.70;;
20229;SDS011;12195;55.790;37.572;2022-08-19T14:34:33;7.17;;;3.10;;
20229;SDS011;12195;55.790;37.572;2022-08-19T14:39:41;11.50;;;4.62;;
20229;SDS011;12195;55.790;37.572;2022-08-19T14:42:15;10.90;;;5.47;;
20229;SDS011;12195;55.790;37.572;2022-08-19T14:44:47;9.58;;;5.00;;
20229;SDS011;12195;55.790;37.572;2022-08-19T14:47:20;14.00;;;5.25;;
20229;SDS011;12195;55.790;37.572;2022-08-19T14:49:53;9.93;;;5.70;;
20229;SDS011;12195;55.790;37.572;2022-08-19T14:52:26;8.03;;;5.10;;
20229;SDS011;12195;55.790;37.572;2022-08-19T14:54:58;14.07;;;5.50;;
20229;SDS011;12195;55.790;37.572;2022-08-19T14:57:31;12.43;;;5.40;;
20229;SDS011;12195;55.790;37.572;2022-08-19T15:00:04;21.55;;;6.33;;
20229;SDS011;12195;55.790;37.572;2022-08-19T15:02:37;9.00;;;4.50;;
20229;SDS011;12195;55.790;37.572;2022-08-19T15:05:10;8.83;;;4.00;;
20229;SDS011;12195;55.790;37.572;2022-08-19T15:07:43;9.85;;;3.15;;
20229;SDS011;12195;55.790;37.572;2022-08-19T15:10:15;17.52;;;4.47;;
20229;SDS011;12195;55.790;37.572;2022-08-19T15:12:48;5.58;;;3.50;;
20229;SDS011;12195;55.790;37.572;2022-08-19T15:15:21;14.45;;;3.70;;
20229;SDS011;12195;55.790;37.572;2022-08-19T15:17:53;6.20;;;3.00;;
20229;SDS011;12195;55.790;37.572;2022-08-19T15:20:26;8.15;;;3.65;;
20229;SDS011;12195;55.790;37.572;2022-08-19T15:22:59;13.25;;;3.87;;
20229;SDS011;12195;55.790;37.572;2022-08-19T15:25:31;8.48;;;3.65;;
20229;SDS011;12195;55.790;37.572;2022-08-19T15:28:04;11.60;;;3.02;;
20229;SDS011;12195;55.790;37.572;2022-08-19T15:30:37;8.85;;;3.52;;
20229;SDS011;12195;55.790;37.572;2022-08-19T15:33:10;9.00;;;3.50;;
20229;SDS011;12195;55.790;37.572;2022-08-19T15:35:48;7.62;;;2.90;;
20229;SDS011;12195;55.790;37.572;2022-08-19T15:38:23;7.03;;;2.52;;